Time;durP1;ratioP1;P1;durP2;ratioP2;P2;SDS_P1;SDS_P2;PMS_P1;PMS_P2;Temp;Humidity;BMP_temperature;BMP_pressure;BME280_temperature;BME280_humidity;BME280_pressure;Samples;Min_cycle;Max_cycle;Signal;HPM_P1;HPM_P2
2023/11/30 11:48:04;;;;;;;16.27;11.27;;;;;;;5.07;100.00;97306.91;5110179;28;20521;-85
2023/11/30 11:50:32;;;;;;;15.90;10.57;;;;;;;5.88;99.99;97320.78;5091553;28;40249;-85
2023/11/30 11:53:00;;;;;;;14.50;10.00;;;;;;;6.59;95.71;97322.81;5091296;28;43068;-84
2023/11/30 11:55:28;;;;;;;12.57;9.63;;;;;;;7.15;91.36;97331.06;5107940;28;42661;-85
2023/11/30 12:01:23;;;;;;;12.17;8.40;;;;;;;7.94;83.86;97338.25;5085614;28;39131;-85
2023/11/30 12:03:54;;;;;;;10.47;8.33;;;;;;;8.17;79.97;97357.59;5075084;28;42563;-84
2023/11/30 12:09:12;;;;;;;12.97;8.50;;;;;;;8.67;77.03;97351.06;5136149;27;43667;-85
2023/11/30 12:11:40;;;;;;;12.63;8.73;;;;;;;8.98;73.07;97360.88;5129097;27;39159;-85
2023/11/30 12:14:09;;;;;;;10.83;8.60;;;;;;;9.22;73.87;97336.09;5128710;27;41877;-84
2023/11/30 12:16:37;;;;;;;13.80;9.00;;;;;;;9.38;71.34;97357.66;5131883;27;41766;-84
2023/11/30 12:19:07;;;;;;;10.83;8.80;;;;;;;9.43;71.94;97344.91;5132521;27;41129;-85
2023/11/30 12:21:36;;;;;;;13.17;9.30;;;;;;;9.58;70.22;97354.22;5132305;27;38929;-84
2023/11/30 12:24:03;;;;;;;10.73;8.47;;;;;;;9.52;68.99;97365.28;5132699;27;40760;-85
2023/11/30 12:26:32;;;;;;;9.60;7.60;;;;;;;9.34;66.64;97382.66;5131762;27;42891;-85
2023/11/30 12:29:10;;;;;;;10.87;7.93;;;;;;;9.20;68.41;97367.06;5131686;27;40533;-87
2023/11/30 12:31:37;;;;;;;9.93;7.43;;;;;;;9.08;69.38;97354.84;5111863;27;40134;-87
2023/11/30 12:34:07;;;;;;;8.83;7.10;;;;;;;8.97;70.97;97340.72;5132308;27;40640;-85
2023/11/30 12:39:35;;;;;;;10.40;7.80;;;;;;;8.70;70.87;97319.16;5131782;27;41161;-85
2023/11/30 12:42:03;;;;;;;8.83;7.60;;;;;;;8.67;71.01;97327.31;5131090;27;39286;-85
2023/11/30 12:44:33;;;;;;;10.67;7.83;;;;;;;8.63;71.23;97326.75;5132164;27;40741;-87
2023/11/30 12:47:04;;;;;;;10.30;7.60;;;;;;;8.63;70.42;97336.44;5110915;27;44251;-86
2023/11/30 12:49:52;;;;;;;8.73;7.20;;;;;;;8.37;69.72;97306.00;5111468;27;42412;-88
2023/11/30 13:02:18;;;;;;;10.70;7.77;;;;;;;8.22;70.13;97310.63;5158150;27;42148;-87
2023/11/30 13:05:08;;;;;;;9.73;7.20;;;;;;;8.05;69.53;97290.84;5159766;27;39079;-88
2023/11/30 13:07:35;;;;;;;10.50;7.27;;;;;;;8.11;70.42;97285.09;5154659;27;41129;-86
2023/11/30 13:10:23;;;;;;;8.50;6.73;;;;;;;8.16;71.07;97282.94;5121477;27;42048;-87
2023/11/30 13:12:56;;;;;;;8.10;6.87;;;;;;;8.11;72.51;97277.19;5155852;27;41306;-90
2023/11/30 13:15:44;;;;;;;8.07;6.87;;;;;;;8.05;73.49;97274.19;5139019;27;38681;-86
2023/11/30 13:21:14;;;;;;;9.73;8.47;;;;;;;7.99;70.11;97270.22;5138297;27;43403;-86
2023/11/30 13:24:01;;;;;;;11.37;7.87;;;;;;;8.15;71.14;97305.00;5133706;27;41308;-87
2023/11/30 13:26:29;;;;;;;9.67;7.70;;;;;;;8.08;71.79;97309.06;5138334;27;39016;-86
2023/11/30 13:31:58;;;;;;;11.03;8.17;;;;;;;7.98;72.60;97310.72;5138109;27;42184;-88
2023/11/30 13:34:26;;;;;;;9.47;7.70;;;;;;;7.80;72.35;97289.25;5120736;27;40657;-85
2023/11/30 13:37:24;;;;;;;9.90;8.10;;;;;;;7.94;72.93;97304.00;5155957;27;40891;-87
2023/11/30 13:39:53;;;;;;;9.87;7.70;;;;;;;7.89;73.34;97301.75;5136815;27;41902;-85
2023/11/30 13:42:20;;;;;;;10.63;7.37;;;;;;;7.70;73.89;97295.34;5138318;27;42110;-85
2023/11/30 13:44:51;;;;;;;9.50;7.53;;;;;;;7.61;74.30;97293.41;5152563;27;42513;-84
2023/11/30 13:47:19;;;;;;;11.50;9.00;;;;;;;7.49;74.62;97293.38;5138522;27;38842;-85
2023/11/30 13:49:47;;;;;;;11.43;8.57;;;;;;;7.47;75.10;97295.28;5156018;27;41747;-85
2023/11/30 13:52:14;;;;;;;11.33;8.37;;;;;;;7.43;75.08;97314.88;5138907;27;42481;-85
2023/11/30 13:54:42;;;;;;;10.30;7.73;;;;;;;7.29;75.30;97301.94;5138261;27;42096;-85
2023/11/30 13:57:11;;;;;;;12.10;9.17;;;;;;;7.17;75.30;97302.84;5155959;27;39170;-85
2023/11/30 13:59:38;;;;;;;10.87;8.40;;;;;;;7.06;74.96;97306.22;5155089;27;40700;-85
2023/11/30 14:02:06;;;;;;;11.63;8.13;;;;;;;6.95;75.38;97292.16;5155546;27;42658;-84
2023/11/30 14:04:34;;;;;;;11.53;9.10;;;;;;;6.83;75.76;97284.22;5137351;27;42778;-85
2023/11/30 14:07:02;;;;;;;11.23;8.83;;;;;;;6.75;75.99;97291.84;5138051;27;38912;-85
2023/11/30 14:09:31;;;;;;;12.23;8.87;;;;;;;6.56;76.50;97273.03;5153777;27;42976;-85
2023/11/30 14:11:59;;;;;;;10.30;8.00;;;;;;;6.54;76.66;97284.66;5137751;27;41518;-85
2023/11/30 14:14:28;;;;;;;11.80;8.43;;;;;;;6.48;77.12;97293.81;5137436;27;40876;-85
2023/11/30 14:16:55;;;;;;;10.77;8.40;;;;;;;6.48;77.46;97306.94;5138117;27;40405;-84
2023/11/30 14:19:23;;;;;;;11.00;7.90;;;;;;;6.36;77.75;97294.66;5137653;27;43204;-84
2023/11/30 14:21:50;;;;;;;11.23;8.17;;;;;;;6.31;78.28;97302.88;5137392;27;42159;-84
2023/11/30 14:24:18;;;;;;;10.13;7.67;;;;;;;6.22;78.42;97293.00;5154535;27;43086;-84
2023/11/30 14:27:16;;;;;;;10.03;8.00;;;;;;;6.16;78.28;97289.97;5136880;27;38820;-84
2023/11/30 14:29:45;;;;;;;12.53;8.43;;;;;;;5.76;78.88;97222.63;5104138;27;42708;-84
2023/11/30 14:32:13;;;;;;;13.17;9.83;;;;;;;6.00;78.98;97277.91;5137990;27;41719;-87
2023/11/30 14:35:11;;;;;;;10.80;8.53;;;;;;;6.00;78.96;97282.31;5151823;27;41647;-83
2023/11/30 14:37:55;;;;;;;11.27;8.40;;;;;;;5.89;79.08;97285.69;5128543;27;40237;-87
2023/11/30 14:40:25;;;;;;;13.97;9.17;;;;;;;5.82;79.54;97283.53;5118753;27;41732;-88
2023/11/30 14:43:07;;;;;;;9.27;7.27;;;;;;;5.47;79.86;97230.78;5119679;27;41842;-86
2023/11/30 14:45:35;;;;;;;10.97;8.80;;;;;;;5.63;80.35;97270.81;5137096;27;41581;-85
2023/11/30 14:48:05;;;;;;;10.93;8.43;;;;;;;5.63;80.71;97273.44;5137305;27;38927;-88
2023/11/30 14:50:33;;;;;;;10.13;8.40;;;;;;;5.48;80.74;97258.72;5119442;27;40577;-86
2023/11/30 14:55:42;;;;;;;11.00;8.20;;;;;;;5.48;81.14;97279.72;5135816;27;42103;-86
2023/11/30 15:00:52;;;;;;;11.03;9.17;;;;;;;5.32;81.71;97269.41;5136535;27;41754;-85
2023/11/30 15:03:20;;;;;;;9.03;7.23;;;;;;;5.15;81.78;97257.44;5137023;27;41873;-86
2023/11/30 15:05:48;;;;;;;12.40;7.83;;;;;;;5.26;82.34;97299.53;5136810;27;42271;-87
2023/11/30 15:08:15;;;;;;;10.97;8.40;;;;;;;5.11;82.22;97291.81;5136033;27;39192;-84
2023/11/30 15:10:47;;;;;;;11.00;8.20;;;;;;;5.04;82.44;97283.53;5136692;27;41732;-86
2023/11/30 15:13:15;;;;;;;10.47;7.93;;;;;;;4.98;82.69;97297.03;5135964;27;41999;-87
2023/11/30 15:15:44;;;;;;;9.77;7.80;;;;;;;4.78;82.80;97263.41;5119642;27;42565;-87
2023/11/30 15:18:13;;;;;;;7.97;6.83;;;;;;;4.82;83.09;97276.19;5118981;27;38592;-85
2023/11/30 15:20:41;;;;;;;9.80;7.57;;;;;;;4.84;83.26;97290.06;5136183;27;41902;-83
